createdAt,value
2023-04-20T00:00:12.780Z,45.99
2023-04-20T00:02:43.951Z,45.91
2023-04-20T00:05:12.911Z,45.84
2023-04-20T00:07:41.789Z,45.97
2023-04-20T00:10:11.042Z,45.91
2023-04-20T00:12:39.990Z,45.80
2023-04-20T00:15:09.165Z,45.61
2023-04-20T00:17:39.834Z,45.43
2023-04-20T00:20:10.211Z,45.28
2023-04-20T00:22:38.766Z,45.24
2023-04-20T00:25:07.375Z,45.48
2023-04-20T00:27:35.937Z,45.60
2023-04-20T00:30:04.498Z,45.53
2023-04-20T00:32:33.845Z,45.62
2023-04-20T00:35:02.169Z,45.58
2023-04-20T00:37:31.186Z,45.80
2023-04-20T00:39:59.432Z,45.86
2023-04-20T00:42:27.866Z,45.80
2023-04-20T00:44:56.103Z,45.96
2023-04-20T00:47:24.368Z,45.86
2023-04-20T00:49:53.211Z,45.93
2023-04-20T00:52:21.628Z,45.96
2023-04-20T00:54:49.982Z,45.90
2023-04-20T00:57:19.620Z,45.83
2023-04-20T00:59:48.212Z,45.87
2023-04-20T01:02:16.768Z,45.81
2023-04-20T01:04:47.087Z,45.82
2023-04-20T01:07:18.595Z,45.80
2023-04-20T01:09:46.978Z,45.90
2023-04-20T01:12:15.175Z,46.00
2023-04-20T01:14:45.977Z,46.00
2023-04-20T01:17:15.607Z,45.89
2023-04-20T01:19:50.052Z,46.22
2023-04-20T01:22:21.635Z,46.40
2023-04-20T01:24:51.952Z,46.37
2023-04-20T01:27:23.257Z,46.48
2023-04-20T01:29:53.660Z,46.56
2023-04-20T01:32:22.012Z,46.62
2023-04-20T01:34:53.498Z,46.78
2023-04-20T01:37:21.791Z,46.75
2023-04-20T01:39:50.101Z,46.80
2023-04-20T01:42:19.722Z,46.76
2023-04-20T01:44:51.552Z,46.62
2023-04-20T01:47:19.863Z,46.63
2023-04-20T01:49:52.115Z,46.60
2023-04-20T01:52:20.396Z,46.61
2023-04-20T01:54:57.704Z,46.57
2023-04-20T01:57:26.279Z,46.66
2023-04-20T01:59:55.825Z,46.54
2023-04-20T02:02:24.082Z,46.49
2023-04-20T02:04:54.422Z,46.45
2023-04-20T02:07:23.093Z,46.48
2023-04-20T02:09:51.700Z,46.49
2023-04-20T02:12:26.114Z,46.45
2023-04-20T02:14:56.868Z,46.33
2023-04-20T02:17:25.198Z,46.26
2023-04-20T02:19:53.559Z,46.12
2023-04-20T02:22:21.898Z,46.03
2023-04-20T02:24:50.223Z,45.99
2023-04-20T02:27:18.388Z,46.01
2023-04-20T02:29:46.744Z,45.78
2023-04-20T02:32:15.799Z,45.69
2023-04-20T02:34:44.016Z,45.58
2023-04-20T02:37:12.339Z,45.57
2023-04-20T02:39:40.725Z,45.58
2023-04-20T02:42:08.941Z,45.40
2023-04-20T02:44:37.266Z,45.36
2023-04-20T02:47:05.816Z,45.41
2023-04-20T02:49:35.062Z,45.25
2023-04-20T02:52:03.581Z,45.11
2023-04-20T02:54:33.566Z,44.97
2023-04-20T02:57:07.837Z,44.91
2023-04-20T02:59:37.550Z,44.78
2023-04-20T03:02:43.744Z,44.83
2023-04-20T03:05:16.615Z,44.73
2023-04-20T03:08:00.709Z,44.70
2023-04-20T03:10:32.866Z,44.61
2023-04-20T03:13:19.045Z,44.19
2023-04-20T03:16:13.642Z,44.08
2023-04-20T03:18:47.084Z,44.12
2023-04-20T03:21:15.749Z,44.03
2023-04-20T03:23:45.670Z,43.81
2023-04-20T03:26:14.260Z,43.83
2023-04-20T03:28:57.280Z,43.75
2023-04-20T03:31:28.521Z,43.64
2023-04-20T03:33:57.944Z,43.82
2023-04-20T03:36:29.402Z,43.89
2023-04-20T03:38:58.097Z,44.05
2023-04-20T03:41:26.757Z,44.15
2023-04-20T03:43:56.592Z,44.17
2023-04-20T03:46:24.876Z,44.21
2023-04-20T03:48:53.275Z,44.54
2023-04-20T03:51:21.470Z,44.77
2023-04-20T03:53:50.767Z,45.30
2023-04-20T03:56:19.609Z,45.83
2023-04-20T03:58:49.194Z,46.39
2023-04-20T04:01:20.604Z,47.59
2023-04-20T04:03:51.160Z,48.26
2023-04-20T04:06:19.724Z,48.73
2023-04-20T04:08:47.915Z,49.05
2023-04-20T04:11:16.128Z,49.46
2023-04-20T04:13:45.284Z,49.89
2023-04-20T04:16:13.992Z,49.99
2023-04-20T04:18:44.433Z,49.92
2023-04-20T04:21:12.862Z,50.79
2023-04-20T04:23:44.089Z,51.43
2023-04-20T04:26:24.996Z,51.95
2023-04-20T04:28:53.807Z,52.05
2023-04-20T04:31:23.864Z,52.30
2023-04-20T04:33:53.189Z,52.10
2023-04-20T04:36:44.617Z,51.91
2023-04-20T04:39:16.236Z,52.13
2023-04-20T04:41:52.750Z,52.30
2023-04-20T04:44:29.484Z,53.19
2023-04-20T04:46:59.110Z,53.78
2023-04-20T04:49:27.635Z,53.92
2023-04-20T04:51:55.994Z,54.20
2023-04-20T04:54:24.327Z,54.51
2023-04-20T04:56:52.504Z,54.59
2023-04-20T04:59:21.737Z,54.75
2023-04-20T05:01:51.231Z,55.18
2023-04-20T05:04:19.605Z,55.51
2023-04-20T05:06:48.029Z,55.85
2023-04-20T05:09:20.286Z,56.22
2023-04-20T05:11:50.703Z,56.36
2023-04-20T05:14:18.971Z,56.91
2023-04-20T05:16:48.001Z,57.43
2023-04-20T05:19:17.559Z,57.81
2023-04-20T05:21:46.160Z,57.93
2023-04-20T05:24:16.722Z,58.34
2023-04-20T05:26:45.352Z,58.59
2023-04-20T05:29:16.288Z,58.84
2023-04-20T05:31:45.570Z,58.89
2023-04-20T05:34:14.159Z,59.26
2023-04-20T05:36:43.390Z,59.72
2023-04-20T05:39:14.213Z,59.93
2023-04-20T05:41:43.110Z,60.50
2023-04-20T05:44:13.868Z,60.98
2023-04-20T05:46:42.082Z,61.51
2023-04-20T05:49:10.852Z,61.95
2023-04-20T05:51:39.163Z,62.67
2023-04-20T05:54:07.921Z,62.85
2023-04-20T05:56:36.959Z,63.32
2023-04-20T05:59:05.216Z,63.78
2023-04-20T06:01:37.098Z,64.18
2023-04-20T06:04:07.111Z,64.50
2023-04-20T06:06:37.346Z,64.50
2023-04-20T06:09:05.528Z,64.69
2023-04-20T06:11:34.160Z,64.90
2023-04-20T06:14:02.542Z,65.04
2023-04-20T06:16:31.114Z,65.06
2023-04-20T06:18:59.893Z,64.99
2023-04-20T06:21:29.309Z,65.08
2023-04-20T06:23:57.766Z,64.94
2023-04-20T06:26:26.747Z,64.80
2023-04-20T06:28:56.212Z,64.35
2023-04-20T06:31:24.863Z,64.13
2023-04-20T06:33:53.219Z,63.30
2023-04-20T06:36:21.789Z,62.96
2023-04-20T06:38:52.214Z,62.81
2023-04-20T06:41:23.515Z,62.65
2023-04-20T06:43:54.086Z,62.40
2023-04-20T06:46:23.250Z,62.55
2023-04-20T06:49:08.701Z,62.38
2023-04-20T06:51:47.051Z,62.25
2023-04-20T06:54:20.378Z,61.88
2023-04-20T06:56:58.437Z,61.58
2023-04-20T06:59:37.989Z,61.19
2023-04-20T07:02:09.548Z,60.34
2023-04-20T07:04:41.550Z,60.17
2023-04-20T07:07:10.204Z,60.04
2023-04-20T07:09:40.080Z,59.60
2023-04-20T07:12:09.712Z,59.37
2023-04-20T07:14:38.536Z,59.14
2023-04-20T07:17:10.535Z,59.18
2023-04-20T07:19:38.755Z,59.01
2023-04-20T07:22:07.649Z,58.93
2023-04-20T07:24:38.322Z,58.29
2023-04-20T07:27:08.668Z,58.15
2023-04-20T07:29:38.274Z,57.81
2023-04-20T07:32:10.049Z,57.15
2023-04-20T07:34:45.097Z,56.75
2023-04-20T07:37:13.456Z,56.76
2023-04-20T07:39:41.634Z,56.79
2023-04-20T07:42:18.311Z,56.54
2023-04-20T07:44:51.746Z,56.44
2023-04-20T07:47:23.071Z,56.38
2023-04-20T07:49:51.893Z,56.14
2023-04-20T07:52:20.241Z,56.02
2023-04-20T07:54:48.973Z,55.95
2023-04-20T07:57:17.751Z,55.85
2023-04-20T07:59:46.487Z,56.10
2023-04-20T08:02:17.252Z,56.42
2023-04-20T08:04:46.635Z,56.44
2023-04-20T08:07:15.539Z,56.18
2023-04-20T08:09:44.029Z,55.98
2023-04-20T08:12:12.594Z,56.21
2023-04-20T08:14:43.170Z,55.98
2023-04-20T08:17:11.773Z,55.94
2023-04-20T08:19:41.151Z,56.11
2023-04-20T08:22:12.660Z,56.00
2023-04-20T08:24:41.070Z,55.84
2023-04-20T08:27:10.089Z,55.88
2023-04-20T08:29:39.691Z,56.30
2023-04-20T08:32:09.598Z,56.55
2023-04-20T08:34:41.486Z,56.86
2023-04-20T08:37:11.308Z,56.87
2023-04-20T08:39:44.820Z,56.85
2023-04-20T08:42:13.497Z,57.02
2023-04-20T08:44:42.461Z,57.36
2023-04-20T08:47:14.008Z,57.67
2023-04-20T08:49:54.119Z,58.11
2023-04-20T08:52:23.458Z,58.46
2023-04-20T08:54:56.503Z,59.07
2023-04-20T08:57:27.744Z,59.25
2023-04-20T08:59:56.951Z,59.65
2023-04-20T09:02:27.026Z,59.57
2023-04-20T09:05:07.130Z,59.56
2023-04-20T09:08:09.604Z,59.06
2023-04-20T09:10:44.313Z,58.79
2023-04-20T09:13:24.617Z,58.29
2023-04-20T09:16:03.678Z,58.10
2023-04-20T09:18:35.612Z,57.89
2023-04-20T09:21:09.905Z,58.01
2023-04-20T09:23:44.174Z,58.04
2023-04-20T09:26:25.102Z,58.22
2023-04-20T09:29:45.138Z,58.21
2023-04-20T09:32:29.492Z,57.97
2023-04-20T09:35:01.139Z,58.04
2023-04-20T09:37:49.310Z,58.12
2023-04-20T09:40:18.654Z,57.97
2023-04-20T09:42:48.627Z,57.71
2023-04-20T09:45:16.960Z,57.73
2023-04-20T09:47:45.745Z,57.60
2023-04-20T09:50:25.106Z,57.44
2023-04-20T09:53:02.370Z,57.14
2023-04-20T09:55:34.888Z,56.87
2023-04-20T09:58:06.228Z,56.83
2023-04-20T10:00:35.551Z,57.14
2023-04-20T10:03:05.524Z,57.49
2023-04-20T10:05:40.190Z,58.01
2023-04-20T10:08:09.594Z,58.25
2023-04-20T10:10:51.754Z,58.32
2023-04-20T10:13:22.000Z,58.08
2023-04-20T10:15:52.127Z,58.32
2023-04-20T10:18:26.109Z,58.45
2023-04-20T10:21:11.125Z,58.54
2023-04-20T10:24:06.128Z,58.58
2023-04-20T10:26:38.810Z,58.47
2023-04-20T10:29:07.301Z,58.29
2023-04-20T10:31:40.829Z,57.90
2023-04-20T10:34:09.913Z,57.94
2023-04-20T10:36:39.527Z,57.56
2023-04-20T10:39:19.717Z,57.57
2023-04-20T10:41:59.431Z,57.49
2023-04-20T10:44:29.631Z,57.46
2023-04-20T10:47:00.585Z,57.50
2023-04-20T10:49:29.736Z,57.51
2023-04-20T10:51:58.313Z,57.74
2023-04-20T10:54:28.415Z,57.79
2023-04-20T10:56:58.619Z,57.83
2023-04-20T10:59:28.904Z,58.00
2023-04-20T11:02:04.334Z,58.64
2023-04-20T11:04:33.190Z,58.90
2023-04-20T11:07:08.039Z,59.16
2023-04-20T11:09:39.591Z,59.50
2023-04-20T11:12:15.139Z,59.84
2023-04-20T11:15:03.606Z,60.27
2023-04-20T11:18:17.689Z,60.73
2023-04-20T11:20:55.375Z,61.23
2023-04-20T11:23:27.115Z,61.52
2023-04-20T11:25:58.018Z,61.62
2023-04-20T11:28:30.683Z,61.38
2023-04-20T11:30:58.833Z,60.65
2023-04-20T11:33:28.768Z,60.30
2023-04-20T11:36:02.747Z,59.99
2023-04-20T11:38:33.423Z,59.68
2023-04-20T11:41:08.280Z,59.84
2023-04-20T11:43:37.536Z,59.14
2023-04-20T11:46:20.561Z,58.58
2023-04-20T11:48:50.594Z,58.01
2023-04-20T11:51:20.652Z,57.44
2023-04-20T11:53:51.707Z,56.64
2023-04-20T11:56:20.230Z,56.60
2023-04-20T11:58:48.543Z,56.31
2023-04-20T12:01:19.782Z,55.78
2023-04-20T12:03:49.186Z,55.55
2023-04-20T12:06:29.607Z,54.86
2023-04-20T12:12:09.139Z,53.99
2023-04-20T12:14:41.767Z,53.92
2023-04-20T12:27:19.783Z,52.88
2023-04-20T12:29:50.361Z,53.07
2023-04-20T12:33:02.353Z,52.81
2023-04-20T12:38:35.066Z,52.24
2023-04-20T12:41:04.552Z,52.22
2023-04-20T12:43:54.256Z,51.93
2023-04-20T12:46:39.486Z,51.80
2023-04-20T12:49:11.424Z,51.53
2023-04-20T12:51:40.979Z,51.83
2023-04-20T12:54:09.446Z,51.84
2023-04-20T12:56:38.080Z,51.75
2023-04-20T12:59:33.159Z,51.28
2023-04-20T13:02:07.804Z,50.89
2023-04-20T13:04:37.202Z,50.92
2023-04-20T13:07:09.130Z,50.62
2023-04-20T13:09:38.955Z,50.76
2023-04-20T13:12:29.547Z,50.76
2023-04-20T13:15:22.872Z,50.92
2023-04-20T13:17:57.197Z,50.55
2023-04-20T13:20:29.548Z,50.35
2023-04-20T13:23:00.451Z,49.82
2023-04-20T13:25:32.937Z,48.82
2023-04-20T13:28:05.380Z,48.14
2023-04-20T13:30:36.479Z,47.77
2023-04-20T13:33:06.915Z,47.74
2023-04-20T13:35:38.619Z,47.87
2023-04-20T13:38:08.543Z,47.23
2023-04-20T13:40:42.393Z,47.45
2023-04-20T13:43:10.763Z,47.26
2023-04-20T13:45:40.313Z,47.07
2023-04-20T13:48:18.584Z,47.14
2023-04-20T13:50:56.060Z,46.98
2023-04-20T13:53:24.744Z,47.17
2023-04-20T13:56:20.678Z,47.36
2023-04-20T13:59:06.705Z,47.54
2023-04-20T14:01:37.036Z,47.32
2023-04-20T14:04:06.341Z,47.38
2023-04-20T14:06:39.326Z,47.01
2023-04-20T14:09:09.492Z,46.80
2023-04-20T14:11:38.385Z,46.46
2023-04-20T14:14:07.519Z,46.18
2023-04-20T14:16:53.099Z,46.72
2023-04-20T14:19:22.119Z,47.10
2023-04-20T14:21:51.568Z,47.50
2023-04-20T14:24:21.912Z,47.42
2023-04-20T14:26:53.303Z,47.28
2023-04-20T14:29:31.392Z,47.23
2023-04-20T14:32:04.410Z,47.18
2023-04-20T14:34:34.906Z,47.17
2023-04-20T14:37:07.659Z,47.29
2023-04-20T14:39:38.251Z,47.64
2023-04-20T14:42:11.471Z,47.75
2023-04-20T14:50:47.513Z,47.76
2023-04-20T14:53:18.539Z,47.63
2023-04-20T15:10:21.781Z,47.34
2023-04-20T15:12:52.408Z,46.93
2023-04-20T15:15:20.968Z,46.97
2023-04-20T15:17:49.664Z,46.83
2023-04-20T15:20:19.540Z,46.92
2023-04-20T15:22:49.137Z,46.94
2023-04-20T15:25:17.575Z,46.81
2023-04-20T15:27:47.865Z,46.71
2023-04-20T15:30:16.551Z,46.41
2023-04-20T15:32:47.328Z,46.20
2023-04-20T15:35:20.848Z,46.12
2023-04-20T15:38:10.782Z,46.22
2023-04-20T15:40:43.237Z,45.82
2023-04-20T15:43:17.329Z,45.81
2023-04-20T15:45:47.462Z,45.83
2023-04-20T15:48:16.629Z,45.88
2023-04-20T15:50:48.261Z,45.90
2023-04-20T15:53:29.011Z,45.80
2023-04-20T15:56:09.469Z,45.80
2023-04-20T15:58:41.944Z,45.91
2023-04-20T16:01:10.610Z,45.97
2023-04-20T16:03:40.632Z,46.04
2023-04-20T16:06:13.851Z,46.06
2023-04-20T16:08:47.490Z,45.97
2023-04-20T16:11:17.667Z,45.92
2023-04-20T16:13:50.143Z,45.93
2023-04-20T16:16:23.139Z,46.11
2023-04-20T16:18:52.318Z,46.10
2023-04-20T16:21:28.299Z,46.31
2023-04-20T16:24:00.275Z,46.51
2023-04-20T16:26:31.284Z,46.46
2023-04-20T16:32:15.973Z,46.52
2023-04-20T16:37:35.832Z,46.84
2023-04-20T16:40:06.932Z,46.95
2023-04-20T16:42:39.626Z,47.14
2023-04-20T16:45:11.894Z,47.22
2023-04-20T16:48:10.936Z,47.37
2023-04-20T16:50:44.738Z,47.60
2023-04-20T16:53:17.758Z,47.76
2023-04-20T16:55:47.300Z,47.96
2023-04-20T16:58:21.830Z,47.78
2023-04-20T17:00:54.132Z,47.73
2023-04-20T17:03:23.754Z,47.87
2023-04-20T17:06:00.394Z,48.28
2023-04-20T17:08:29.954Z,48.46
2023-04-20T17:10:58.949Z,48.69
2023-04-20T17:13:36.193Z,48.84
2023-04-20T17:16:07.406Z,48.74
2023-04-20T17:18:41.967Z,48.95
2023-04-20T17:21:15.222Z,49.11
2023-04-20T17:23:45.349Z,49.32
2023-04-20T17:26:18.308Z,49.58
2023-04-20T17:28:49.779Z,49.68
2023-04-20T17:31:20.179Z,49.68
2023-04-20T17:33:52.250Z,49.70
2023-04-20T17:36:23.071Z,49.91
2023-04-20T17:38:56.118Z,49.99
2023-04-20T17:41:26.646Z,50.05
2023-04-20T17:43:56.298Z,50.09
2023-04-20T17:46:26.942Z,50.13
2023-04-20T17:48:55.652Z,50.49
2023-04-20T17:51:25.818Z,50.81
2023-04-20T17:53:55.608Z,50.64
2023-04-20T17:56:25.835Z,50.71
2023-04-20T17:58:55.455Z,50.81
2023-04-20T18:01:24.262Z,51.00
2023-04-20T18:03:55.703Z,51.25
2023-04-20T18:06:24.920Z,51.37
2023-04-20T18:08:54.201Z,51.67
2023-04-20T18:11:22.932Z,52.05
2023-04-20T18:13:53.234Z,52.17
2023-04-20T18:16:22.787Z,52.14
2023-04-20T18:18:53.713Z,52.37
2023-04-20T18:21:22.380Z,52.17
2023-04-20T18:23:52.698Z,52.13
2023-04-20T18:26:25.210Z,52.29
2023-04-20T18:28:58.328Z,52.37
2023-04-20T18:31:37.646Z,52.51
2023-04-20T18:34:06.267Z,52.66
2023-04-20T18:36:38.248Z,52.75
2023-04-20T18:39:09.828Z,52.78
2023-04-20T18:41:40.193Z,52.81
2023-04-20T18:44:11.688Z,52.80
2023-04-20T18:46:52.417Z,52.82
2023-04-20T18:49:22.461Z,52.85
2023-04-20T18:51:51.316Z,52.87
2023-04-20T18:54:29.199Z,53.08
2023-04-20T18:56:58.823Z,53.14
2023-04-20T18:59:28.746Z,53.35
2023-04-20T19:01:58.351Z,53.37
2023-04-20T19:04:27.066Z,53.46
2023-04-20T19:06:56.675Z,53.54
2023-04-20T19:09:24.859Z,53.56
2023-04-20T19:11:53.839Z,53.78
2023-04-20T19:14:23.451Z,53.97
2023-04-20T19:16:52.933Z,54.10
2023-04-20T19:19:21.820Z,54.17
2023-04-20T19:21:52.006Z,54.25
2023-04-20T19:24:26.320Z,54.32
2023-04-20T19:26:55.222Z,54.49
2023-04-20T19:29:26.163Z,54.53
2023-04-20T19:31:54.817Z,54.44
2023-04-20T19:38:21.416Z,55.02
2023-04-20T19:40:53.805Z,55.40
2023-04-20T19:43:27.058Z,55.62
2023-04-20T19:45:56.257Z,55.81
2023-04-20T19:48:26.795Z,55.99
2023-04-20T19:51:05.222Z,56.08
2023-04-20T19:53:38.246Z,56.09
2023-04-20T19:56:08.222Z,56.36
2023-04-20T19:58:36.834Z,56.42
2023-04-20T20:01:09.311Z,56.70
2023-04-20T20:03:41.030Z,56.83
2023-04-20T20:06:12.057Z,56.74
2023-04-20T20:08:51.811Z,56.72
2023-04-20T20:11:24.040Z,56.89
2023-04-20T20:14:03.576Z,56.89
2023-04-20T20:16:34.465Z,56.99
2023-04-20T20:19:03.749Z,56.88
2023-04-20T20:21:34.601Z,56.81
2023-04-20T20:24:05.436Z,56.87
2023-04-20T20:26:41.154Z,56.70
2023-04-20T20:29:12.359Z,56.74
2023-04-20T20:31:43.976Z,56.64
2023-04-20T20:34:25.691Z,56.30
2023-04-20T20:36:55.113Z,56.30
2023-04-20T20:39:26.212Z,56.21
2023-04-20T20:42:00.244Z,56.13
2023-04-20T20:44:30.223Z,56.04
2023-04-20T20:47:02.089Z,55.94
2023-04-20T20:49:32.925Z,55.84
2023-04-20T20:52:02.490Z,55.75
2023-04-20T20:54:34.808Z,55.78
2023-04-20T20:57:03.209Z,55.76
2023-04-20T20:59:34.354Z,55.89
2023-04-20T21:02:07.617Z,55.96
2023-04-20T21:04:44.099Z,55.88
2023-04-20T21:07:14.573Z,55.80
2023-04-20T21:09:44.135Z,55.76
2023-04-20T21:12:14.815Z,55.74
2023-04-20T21:14:43.664Z,55.86
2023-04-20T21:17:17.397Z,55.77
2023-04-20T21:19:48.015Z,55.79
2023-04-20T21:22:17.604Z,55.74
2023-04-20T21:24:51.625Z,55.72
2023-04-20T21:27:20.538Z,55.77
2023-04-20T21:29:51.947Z,55.72
2023-04-20T21:32:21.232Z,55.81
2023-04-20T21:34:50.370Z,55.83
2023-04-20T21:37:18.835Z,55.85
2023-04-20T21:39:47.904Z,55.47
2023-04-20T21:42:17.643Z,55.42
2023-04-20T21:44:46.551Z,55.41
2023-04-20T21:47:16.309Z,55.30
2023-04-20T21:49:47.658Z,55.43
2023-04-20T21:52:17.597Z,55.51
2023-04-20T21:54:46.464Z,55.46
2023-04-20T21:57:14.771Z,55.43
2023-04-20T21:59:45.618Z,55.34
2023-04-20T22:02:14.497Z,55.39
2023-04-20T22:04:54.920Z,55.40
2023-04-20T22:07:24.243Z,55.37
2023-04-20T22:09:58.982Z,55.39
2023-04-20T22:12:39.354Z,55.31
2023-04-20T22:15:14.256Z,55.33
2023-04-20T22:17:45.661Z,55.43
2023-04-20T22:20:17.236Z,55.30
2023-04-20T22:22:48.919Z,55.45
2023-04-20T22:25:27.562Z,55.59
2023-04-20T22:27:59.167Z,55.68
2023-04-20T22:30:27.547Z,55.68
2023-04-20T22:32:56.137Z,55.80
2023-04-20T22:35:26.256Z,55.81
2023-04-20T22:37:56.689Z,55.65
2023-04-20T22:40:27.417Z,55.80
2023-04-20T22:42:57.818Z,55.62
2023-04-20T22:45:35.974Z,55.77
2023-04-20T22:48:05.678Z,55.83
2023-04-20T22:50:35.475Z,55.93
2023-04-20T22:53:05.638Z,55.90
2023-04-20T22:55:34.590Z,55.94
2023-04-20T22:58:02.941Z,55.91
2023-04-20T23:00:32.437Z,55.91
2023-04-20T23:03:06.677Z,56.14
2023-04-20T23:05:37.394Z,56.01
2023-04-20T23:08:07.954Z,55.99
2023-04-20T23:10:39.881Z,56.10
2023-04-20T23:13:10.720Z,56.29
2023-04-20T23:15:40.083Z,56.22
2023-04-20T23:18:10.743Z,56.04
2023-04-20T23:20:40.922Z,56.00
2023-04-20T23:23:10.947Z,55.96
2023-04-20T23:25:39.934Z,56.04
2023-04-20T23:28:13.823Z,56.04
2023-04-20T23:30:44.623Z,56.03
2023-04-20T23:33:16.094Z,56.10
2023-04-20T23:35:44.805Z,56.01
2023-04-20T23:38:14.599Z,56.07
2023-04-20T23:40:44.097Z,56.07
2023-04-20T23:43:13.149Z,56.15
2023-04-20T23:45:41.421Z,56.11
2023-04-20T23:48:10.439Z,56.02
2023-04-20T23:50:41.273Z,55.99
2023-04-20T23:53:15.212Z,56.03
2023-04-20T23:55:54.290Z,56.03
2023-04-20T23:58:29.161Z,55.99
